createdAt,value
2018-06-27T00:00:12.897Z,100703.00
2018-06-27T00:02:49.403Z,100705.00
2018-06-27T00:05:25.211Z,100707.00
2018-06-27T00:08:02.807Z,100710.00
2018-06-27T00:10:38.868Z,100714.00
2018-06-27T00:13:16.097Z,100709.00
2018-06-27T00:15:56.327Z,100716.00
2018-06-27T00:18:33.457Z,100711.00
2018-06-27T00:21:09.884Z,100705.00
2018-06-27T00:23:45.594Z,100709.00
2018-06-27T00:26:22.730Z,100712.00
2018-06-27T00:28:59.754Z,100710.00
2018-06-27T00:31:36.721Z,100709.00
2018-06-27T00:34:12.918Z,100714.00
2018-06-27T00:36:50.898Z,100721.00
2018-06-27T00:39:33.610Z,100727.00
2018-06-27T00:42:11.492Z,100727.00
2018-06-27T00:44:48.424Z,100728.00
2018-06-27T00:47:25.850Z,100729.00
2018-06-27T00:50:01.561Z,100729.00
2018-06-27T00:52:37.668Z,100730.00
2018-06-27T00:55:13.904Z,100728.00
2018-06-27T00:57:49.942Z,100735.00
2018-06-27T01:00:28.257Z,100733.00
2018-06-27T01:03:05.686Z,100735.00
2018-06-27T01:05:41.625Z,100735.00
2018-06-27T01:08:19.716Z,100738.00
2018-06-27T01:10:56.273Z,100739.00
2018-06-27T01:13:32.023Z,100745.00
2018-06-27T01:16:08.520Z,100748.00
2018-06-27T01:18:45.822Z,100751.00
2018-06-27T01:21:21.554Z,100749.00
2018-06-27T01:23:58.196Z,100754.00
2018-06-27T01:26:33.987Z,100753.00
2018-06-27T01:29:10.481Z,100748.00
2018-06-27T01:31:47.594Z,100760.00
2018-06-27T01:34:24.621Z,100760.00
2018-06-27T01:37:01.540Z,100758.00
2018-06-27T01:39:37.598Z,100762.00
2018-06-27T01:42:14.245Z,100758.00
2018-06-27T01:44:51.010Z,100766.00
2018-06-27T01:47:28.629Z,100765.00
2018-06-27T01:50:05.553Z,100771.00
2018-06-27T01:52:43.430Z,100771.00
2018-06-27T01:55:20.113Z,100766.00
2018-06-27T01:57:55.958Z,100764.00
2018-06-27T02:00:32.208Z,100769.00
2018-06-27T02:03:10.429Z,100768.00
2018-06-27T02:05:47.257Z,100773.00
2018-06-27T02:08:23.829Z,100778.00
2018-06-27T02:11:00.306Z,100774.00
2018-06-27T02:13:38.310Z,100780.00
2018-06-27T02:16:14.712Z,100780.00
2018-06-27T02:18:53.553Z,100781.00
2018-06-27T02:21:29.753Z,100787.00
2018-06-27T02:24:06.409Z,100781.00
2018-06-27T02:26:42.899Z,100783.00
2018-06-27T02:29:20.125Z,100773.00
2018-06-27T02:31:56.189Z,100781.00
2018-06-27T02:34:32.651Z,100778.00
2018-06-27T02:37:08.658Z,100774.00
2018-06-27T02:39:44.754Z,100777.00
2018-06-27T02:42:21.723Z,100770.00
2018-06-27T02:44:59.584Z,100772.00
2018-06-27T02:47:35.110Z,100780.00
2018-06-27T02:50:11.676Z,100779.00
2018-06-27T02:52:49.054Z,100785.00
2018-06-27T02:55:25.288Z,100788.00
2018-06-27T02:58:03.534Z,100787.00
2018-06-27T03:00:40.572Z,100791.00
2018-06-27T03:03:16.326Z,100791.00
2018-06-27T03:05:52.869Z,100793.00
2018-06-27T03:08:30.573Z,100793.00
2018-06-27T03:11:07.502Z,100798.00
2018-06-27T03:13:43.972Z,100805.00
2018-06-27T03:16:20.722Z,100799.00
2018-06-27T03:18:57.760Z,100803.00
2018-06-27T03:21:33.991Z,100797.00
2018-06-27T03:24:10.200Z,100802.00
2018-06-27T03:26:48.870Z,100800.00
2018-06-27T03:29:25.854Z,100802.00
2018-06-27T03:32:02.206Z,100804.00
2018-06-27T03:34:38.675Z,100804.00
2018-06-27T03:37:15.161Z,100803.00
2018-06-27T03:39:51.283Z,100806.00
2018-06-27T03:42:27.537Z,100806.00
2018-06-27T03:45:04.777Z,100808.00
2018-06-27T03:47:41.437Z,100817.00
2018-06-27T03:50:18.829Z,100818.00
2018-06-27T03:52:55.409Z,100814.00
2018-06-27T03:55:31.504Z,100824.00
2018-06-27T03:58:08.905Z,100829.00
2018-06-27T04:00:46.682Z,100828.00
2018-06-27T04:03:23.509Z,100832.00
2018-06-27T04:06:01.776Z,100831.00
2018-06-27T04:08:39.456Z,100834.00
2018-06-27T04:11:16.815Z,100833.00
2018-06-27T04:13:53.231Z,100837.00
2018-06-27T04:16:31.150Z,100841.00
2018-06-27T04:19:08.838Z,100835.00
2018-06-27T04:21:45.445Z,100841.00
2018-06-27T04:24:21.769Z,100840.00
2018-06-27T04:26:58.781Z,100837.00
2018-06-27T04:29:35.217Z,100844.00
2018-06-27T04:32:14.501Z,100841.00
2018-06-27T04:34:51.605Z,100845.00
2018-06-27T04:37:28.419Z,100849.00
2018-06-27T04:40:06.305Z,100843.00
2018-06-27T04:42:43.467Z,100851.00
2018-06-27T04:45:20.081Z,100847.00
2018-06-27T04:47:56.941Z,100841.00
2018-06-27T04:50:35.819Z,100847.00
2018-06-27T04:53:12.712Z,100840.00
2018-06-27T04:55:48.798Z,100842.00
2018-06-27T04:58:27.458Z,100844.00
2018-06-27T05:01:04.227Z,100845.00
2018-06-27T05:03:42.236Z,100848.00
2018-06-27T05:06:19.764Z,100841.00
2018-06-27T05:08:57.881Z,100849.00
2018-06-27T05:11:35.918Z,100844.00
2018-06-27T05:14:12.408Z,100844.00
2018-06-27T05:16:49.054Z,100847.00
2018-06-27T05:19:25.725Z,100853.00
2018-06-27T05:22:03.271Z,100856.00
2018-06-27T05:24:39.978Z,100857.00
2018-06-27T05:27:17.030Z,100863.00
2018-06-27T05:29:53.922Z,100868.00
2018-06-27T05:32:30.303Z,100862.00
2018-06-27T05:35:07.113Z,100865.00
2018-06-27T05:37:46.093Z,100871.00
2018-06-27T05:40:24.779Z,100881.00
2018-06-27T05:43:02.391Z,100883.00
2018-06-27T05:45:39.400Z,100887.00
2018-06-27T05:48:17.023Z,100880.00
2018-06-27T05:50:54.748Z,100881.00
2018-06-27T05:53:33.829Z,100876.00
2018-06-27T05:56:11.306Z,100880.00
2018-06-27T05:58:49.345Z,100879.00
2018-06-27T06:01:25.595Z,100880.00
2018-06-27T06:04:02.518Z,100877.00
2018-06-27T06:06:38.772Z,100887.00
2018-06-27T06:09:15.497Z,100881.00
2018-06-27T06:11:53.087Z,100885.00
2018-06-27T06:14:30.912Z,100892.00
2018-06-27T06:17:07.337Z,100895.00
2018-06-27T06:19:45.083Z,100894.00
2018-06-27T06:22:23.134Z,100902.00
2018-06-27T06:25:00.466Z,100896.00
2018-06-27T06:27:36.425Z,100886.00
2018-06-27T06:30:13.435Z,100892.00
2018-06-27T06:32:51.535Z,100889.00
2018-06-27T06:35:29.302Z,100885.00
2018-06-27T06:38:07.705Z,100881.00
2018-06-27T06:40:44.408Z,100879.00
2018-06-27T06:43:22.681Z,100877.00
2018-06-27T06:46:00.878Z,100883.00
2018-06-27T06:48:38.436Z,100886.00
2018-06-27T06:51:16.810Z,100896.00
2018-06-27T06:53:53.572Z,100901.00
2018-06-27T06:56:30.741Z,100895.00
2018-06-27T06:59:09.123Z,100895.00
2018-06-27T07:01:46.412Z,100900.00
2018-06-27T07:04:23.717Z,100896.00
2018-06-27T07:07:01.289Z,100899.00
2018-06-27T07:09:37.658Z,100898.00
2018-06-27T07:12:13.881Z,100888.00
2018-06-27T07:14:51.635Z,100896.00
2018-06-27T07:17:29.041Z,100897.00
2018-06-27T07:20:06.385Z,100899.00
2018-06-27T07:22:42.990Z,100901.00
2018-06-27T07:25:19.910Z,100891.00
2018-06-27T07:27:57.899Z,100898.00
2018-06-27T07:30:34.350Z,100894.00
2018-06-27T07:33:10.989Z,100893.00
2018-06-27T07:35:48.624Z,100892.00
2018-06-27T07:38:24.975Z,100886.00
2018-06-27T07:41:02.198Z,100888.00
2018-06-27T07:43:39.753Z,100892.00
2018-06-27T07:46:18.047Z,100891.00
2018-06-27T07:48:54.807Z,100890.00
2018-06-27T07:51:31.769Z,100900.00
2018-06-27T07:54:09.523Z,100899.00
2018-06-27T07:56:46.650Z,100904.00
2018-06-27T07:59:23.786Z,100892.00
2018-06-27T08:02:02.037Z,100899.00
2018-06-27T08:04:39.964Z,100896.00
2018-06-27T08:07:17.681Z,100883.00
2018-06-27T08:09:54.298Z,100885.00
2018-06-27T08:12:31.197Z,100895.00
2018-06-27T08:15:09.495Z,100899.00
2018-06-27T08:17:47.167Z,100889.00
2018-06-27T08:20:25.243Z,100888.00
2018-06-27T08:23:02.286Z,100898.00
2018-06-27T08:25:43.053Z,100883.00
2018-06-27T08:28:20.255Z,100897.00
2018-06-27T08:30:58.674Z,100887.00
2018-06-27T08:33:35.417Z,100900.00
2018-06-27T08:36:13.085Z,100896.00
2018-06-27T08:38:51.592Z,100873.00
2018-06-27T08:41:29.754Z,100897.00
2018-06-27T08:44:06.643Z,100895.00
2018-06-27T08:46:44.152Z,100892.00
2018-06-27T08:49:20.634Z,100880.00
2018-06-27T08:51:58.799Z,100898.00
2018-06-27T08:54:40.739Z,100894.00
2018-06-27T08:57:19.027Z,100893.00
2018-06-27T08:59:55.321Z,100895.00
2018-06-27T09:02:32.867Z,100878.00
2018-06-27T09:05:09.602Z,100890.00
2018-06-27T09:07:46.197Z,100887.00
2018-06-27T09:10:22.954Z,100907.00
2018-06-27T09:13:01.281Z,100911.00
2018-06-27T09:15:39.229Z,100901.00
2018-06-27T09:18:15.772Z,100898.00
2018-06-27T09:20:53.025Z,100870.00
2018-06-27T09:23:30.982Z,100883.00
2018-06-27T09:26:09.257Z,100884.00
2018-06-27T09:28:46.787Z,100906.00
2018-06-27T09:31:24.542Z,100896.00
2018-06-27T09:34:01.530Z,100898.00
2018-06-27T09:36:38.062Z,100883.00
2018-06-27T09:39:15.707Z,100907.00
2018-06-27T09:41:52.062Z,100901.00
2018-06-27T09:44:28.939Z,100897.00
2018-06-27T09:47:05.382Z,100881.00
2018-06-27T09:49:43.729Z,100877.00
2018-06-27T09:52:20.434Z,100873.00
2018-06-27T09:54:58.368Z,100904.00
2018-06-27T09:57:37.110Z,100899.00
2018-06-27T10:00:19.534Z,100877.00
2018-06-27T10:02:56.573Z,100874.00
2018-06-27T10:05:35.066Z,100872.00
2018-06-27T10:08:11.870Z,100865.00
2018-06-27T10:10:50.216Z,100877.00
2018-06-27T10:13:27.977Z,100876.00
2018-06-27T10:16:05.016Z,100880.00
2018-06-27T10:18:41.938Z,100871.00
2018-06-27T10:21:19.354Z,100872.00
2018-06-27T10:23:55.843Z,100875.00
2018-06-27T10:26:33.145Z,100875.00
2018-06-27T10:29:11.079Z,100877.00
2018-06-27T10:31:48.021Z,100884.00
2018-06-27T10:34:23.807Z,100873.00
2018-06-27T10:37:00.424Z,100889.00
2018-06-27T10:39:38.393Z,100857.00
2018-06-27T10:42:16.293Z,100865.00
2018-06-27T10:44:52.961Z,100865.00
2018-06-27T10:47:29.638Z,100890.00
2018-06-27T10:50:06.985Z,100861.00
2018-06-27T10:52:43.192Z,100865.00
2018-06-27T10:55:21.350Z,100859.00
2018-06-27T10:57:57.537Z,100870.00
2018-06-27T11:00:35.348Z,100877.00
2018-06-27T11:03:12.872Z,100870.00
2018-06-27T11:05:50.206Z,100873.00
2018-06-27T11:08:28.821Z,100872.00
2018-06-27T11:11:05.262Z,100876.00
2018-06-27T11:13:42.359Z,100872.00
2018-06-27T11:16:18.413Z,100880.00
2018-06-27T11:18:56.257Z,100877.00
2018-06-27T11:21:34.043Z,100873.00
2018-06-27T11:24:10.990Z,100880.00
2018-06-27T11:26:48.056Z,100871.00
2018-06-27T11:29:26.271Z,100860.00
2018-06-27T11:32:02.743Z,100869.00
2018-06-27T11:34:38.813Z,100871.00
2018-06-27T11:37:15.258Z,100862.00
2018-06-27T11:39:52.551Z,100869.00
2018-06-27T11:42:29.735Z,100884.00
2018-06-27T11:45:06.858Z,100872.00
2018-06-27T11:47:45.129Z,100870.00
2018-06-27T11:50:23.476Z,100866.00
2018-06-27T11:53:00.843Z,100843.00
2018-06-27T11:55:39.179Z,100867.00
2018-06-27T11:58:15.532Z,100870.00
2018-06-27T12:00:53.293Z,100858.00
2018-06-27T12:03:31.273Z,100855.00
2018-06-27T12:06:09.181Z,100851.00
2018-06-27T12:08:47.333Z,100853.00
2018-06-27T12:11:24.348Z,100836.00
2018-06-27T12:14:02.425Z,100838.00
2018-06-27T12:16:40.596Z,100832.00
2018-06-27T12:19:17.519Z,100840.00
2018-06-27T12:21:55.429Z,100839.00
2018-06-27T12:24:32.461Z,100846.00
2018-06-27T12:27:09.637Z,100844.00
2018-06-27T12:29:47.521Z,100847.00
2018-06-27T12:32:24.484Z,100849.00
2018-06-27T12:35:02.644Z,100847.00
2018-06-27T12:37:39.997Z,100858.00
2018-06-27T12:40:17.379Z,100848.00
2018-06-27T12:42:53.783Z,100856.00
2018-06-27T12:45:32.220Z,100848.00
2018-06-27T12:48:09.818Z,100851.00
2018-06-27T12:50:47.409Z,100839.00
2018-06-27T12:53:25.074Z,100835.00
2018-06-27T12:56:02.806Z,100834.00
2018-06-27T12:58:39.256Z,100831.00
2018-06-27T13:01:16.629Z,100831.00
2018-06-27T13:03:52.849Z,100833.00
2018-06-27T13:06:30.658Z,100829.00
2018-06-27T13:09:10.429Z,100828.00
2018-06-27T13:11:47.202Z,100835.00
2018-06-27T13:14:26.092Z,100817.00
2018-06-27T13:17:03.438Z,100814.00
2018-06-27T13:19:41.253Z,100816.00
2018-06-27T13:22:18.777Z,100825.00
2018-06-27T13:24:56.467Z,100809.00
2018-06-27T13:27:33.614Z,100811.00
2018-06-27T13:30:10.798Z,100809.00
2018-06-27T13:32:48.098Z,100808.00
2018-06-27T13:35:25.474Z,100812.00
2018-06-27T13:38:02.147Z,100807.00
2018-06-27T13:40:39.051Z,100794.00
2018-06-27T13:43:17.805Z,100792.00
2018-06-27T13:45:56.552Z,100797.00
2018-06-27T13:48:34.546Z,100799.00
2018-06-27T13:51:12.473Z,100792.00
2018-06-27T13:53:48.645Z,100790.00
2018-06-27T13:56:26.641Z,100796.00
2018-06-27T13:59:03.427Z,100794.00
2018-06-27T14:01:40.383Z,100798.00
2018-06-27T14:04:18.170Z,100782.00
2018-06-27T14:06:53.844Z,100790.00
2018-06-27T14:09:31.202Z,100788.00
2018-06-27T14:12:08.939Z,100787.00
2018-06-27T14:14:46.725Z,100777.00
2018-06-27T14:17:25.167Z,100792.00
2018-06-27T14:20:02.540Z,100784.00
2018-06-27T14:22:39.158Z,100779.00
2018-06-27T14:25:16.646Z,100779.00
2018-06-27T14:27:54.625Z,100776.00
2018-06-27T14:30:31.975Z,100781.00
2018-06-27T14:33:09.605Z,100774.00
2018-06-27T14:35:48.034Z,100765.00
2018-06-27T14:38:24.779Z,100766.00
2018-06-27T14:41:02.251Z,100774.00
2018-06-27T14:43:39.061Z,100773.00
2018-06-27T14:46:17.309Z,100772.00
2018-06-27T14:48:55.169Z,100768.00
2018-06-27T14:51:33.946Z,100776.00
2018-06-27T14:54:11.424Z,100773.00
2018-06-27T14:56:49.261Z,100774.00
2018-06-27T14:59:25.722Z,100782.00
2018-06-27T15:02:02.768Z,100777.00
2018-06-27T15:04:40.925Z,100780.00
2018-06-27T15:07:17.893Z,100770.00
2018-06-27T15:09:55.077Z,100776.00
2018-06-27T15:12:31.690Z,100770.00
2018-06-27T15:15:08.075Z,100766.00
2018-06-27T15:17:46.610Z,100764.00
2018-06-27T15:20:23.428Z,100765.00
2018-06-27T15:22:59.845Z,100764.00
2018-06-27T15:25:36.591Z,100773.00
2018-06-27T15:28:14.214Z,100772.00
2018-06-27T15:30:52.143Z,100774.00
2018-06-27T15:33:29.926Z,100779.00
2018-06-27T15:36:05.971Z,100769.00
2018-06-27T15:38:42.693Z,100767.00
2018-06-27T15:41:19.214Z,100770.00
2018-06-27T15:43:56.635Z,100763.00
2018-06-27T15:46:33.226Z,100762.00
2018-06-27T15:49:11.147Z,100769.00
2018-06-27T15:51:48.158Z,100764.00
2018-06-27T15:54:25.884Z,100761.00
2018-06-27T15:57:03.119Z,100768.00
2018-06-27T15:59:55.090Z,100768.00
2018-06-27T16:02:33.546Z,100765.00
2018-06-27T16:05:10.948Z,100766.00
2018-06-27T16:07:47.963Z,100761.00
2018-06-27T16:10:24.556Z,100759.00
2018-06-27T16:13:02.446Z,100758.00
2018-06-27T16:15:39.150Z,100752.00
2018-06-27T16:18:15.819Z,100752.00
2018-06-27T16:20:52.851Z,100755.00
2018-06-27T16:23:29.782Z,100753.00
2018-06-27T16:26:07.694Z,100758.00
2018-06-27T16:28:45.066Z,100753.00
2018-06-27T16:31:22.310Z,100748.00
2018-06-27T16:33:59.292Z,100747.00
2018-06-27T16:36:37.183Z,100752.00
2018-06-27T16:39:14.889Z,100749.00
2018-06-27T16:41:51.460Z,100751.00
2018-06-27T16:44:30.312Z,100750.00
2018-06-27T16:47:07.466Z,100747.00
2018-06-27T16:49:43.730Z,100747.00
2018-06-27T16:52:20.419Z,100745.00
2018-06-27T16:54:57.466Z,100750.00
2018-06-27T16:57:35.515Z,100744.00
2018-06-27T17:00:12.607Z,100744.00
2018-06-27T17:02:50.273Z,100744.00
2018-06-27T17:05:27.473Z,100754.00
2018-06-27T17:08:04.338Z,100749.00
2018-06-27T17:10:40.563Z,100743.00
2018-06-27T17:13:19.343Z,100748.00
2018-06-27T17:15:57.389Z,100740.00
2018-06-27T17:18:34.042Z,100740.00
2018-06-27T17:21:11.178Z,100738.00
2018-06-27T17:23:52.537Z,100736.00
2018-06-27T17:26:30.182Z,100734.00
2018-06-27T17:29:06.844Z,100734.00
2018-06-27T17:31:44.064Z,100736.00
2018-06-27T17:34:20.132Z,100743.00
2018-06-27T17:36:57.449Z,100748.00
2018-06-27T17:39:35.607Z,100757.00
2018-06-27T17:42:12.971Z,100758.00
2018-06-27T17:44:51.211Z,100760.00
2018-06-27T17:47:27.681Z,100750.00
2018-06-27T17:50:07.272Z,100754.00
2018-06-27T17:52:44.436Z,100760.00
2018-06-27T17:55:21.949Z,100761.00
2018-06-27T17:57:58.942Z,100755.00
2018-06-27T18:00:35.651Z,100752.00
2018-06-27T18:03:13.041Z,100757.00
2018-06-27T18:05:49.756Z,100758.00
2018-06-27T18:08:26.138Z,100752.00
2018-06-27T18:11:02.965Z,100756.00
2018-06-27T18:13:40.228Z,100755.00
2018-06-27T18:16:16.580Z,100754.00
2018-06-27T18:18:53.359Z,100753.00
2018-06-27T18:21:32.995Z,100754.00
2018-06-27T18:24:10.546Z,100760.00
2018-06-27T18:26:47.484Z,100757.00
2018-06-27T18:29:24.381Z,100757.00
2018-06-27T18:32:01.571Z,100760.00
2018-06-27T18:34:39.024Z,100759.00
2018-06-27T18:37:16.427Z,100763.00
2018-06-27T18:39:53.036Z,100762.00
2018-06-27T18:42:29.134Z,100766.00
2018-06-27T18:45:06.443Z,100767.00
2018-06-27T18:47:44.227Z,100763.00
2018-06-27T18:50:22.270Z,100765.00
2018-06-27T18:52:58.863Z,100768.00
2018-06-27T18:55:36.181Z,100773.00
2018-06-27T18:58:12.882Z,100772.00
2018-06-27T19:00:51.140Z,100774.00
2018-06-27T19:03:28.681Z,100774.00
2018-06-27T19:06:06.860Z,100778.00
2018-06-27T19:08:43.108Z,100778.00
2018-06-27T19:11:20.176Z,100780.00
2018-06-27T19:13:56.286Z,100775.00
2018-06-27T19:16:32.685Z,100783.00
2018-06-27T19:19:10.463Z,100778.00
2018-06-27T19:21:47.511Z,100775.00
2018-06-27T19:24:24.299Z,100776.00
2018-06-27T19:27:00.722Z,100776.00
2018-06-27T19:29:37.002Z,100780.00
2018-06-27T19:32:15.034Z,100778.00
2018-06-27T19:34:52.270Z,100783.00
2018-06-27T19:37:29.208Z,100783.00
2018-06-27T19:40:06.714Z,100785.00
2018-06-27T19:42:44.212Z,100785.00
2018-06-27T19:45:21.955Z,100788.00
2018-06-27T19:47:59.450Z,100785.00
2018-06-27T19:50:35.766Z,100792.00
2018-06-27T19:53:13.426Z,100798.00
2018-06-27T19:55:51.543Z,100794.00
2018-06-27T19:58:29.463Z,100792.00
2018-06-27T20:01:05.886Z,100801.00
2018-06-27T20:03:41.805Z,100803.00
2018-06-27T20:06:20.717Z,100801.00
2018-06-27T20:08:57.687Z,100806.00
2018-06-27T20:11:35.191Z,100800.00
2018-06-27T20:14:11.522Z,100804.00
2018-06-27T20:16:48.671Z,100794.00
2018-06-27T20:19:24.551Z,100803.00
2018-06-27T20:22:02.824Z,100805.00
2018-06-27T20:24:39.277Z,100804.00
2018-06-27T20:27:16.009Z,100809.00
2018-06-27T20:29:53.686Z,100817.00
2018-06-27T20:32:30.889Z,100813.00
2018-06-27T20:35:08.303Z,100814.00
2018-06-27T20:37:46.043Z,100813.00
2018-06-27T20:40:24.113Z,100816.00
2018-06-27T20:43:00.048Z,100808.00
2018-06-27T20:45:36.244Z,100808.00
2018-06-27T20:48:13.309Z,100808.00
2018-06-27T20:50:50.920Z,100813.00
2018-06-27T20:53:27.027Z,100806.00
2018-06-27T20:56:04.253Z,100811.00
2018-06-27T20:58:40.471Z,100809.00
2018-06-27T21:01:16.169Z,100808.00
2018-06-27T21:03:54.512Z,100806.00
2018-06-27T21:06:32.394Z,100806.00
2018-06-27T21:09:10.604Z,100801.00
2018-06-27T21:11:47.340Z,100807.00
2018-06-27T21:14:26.708Z,100797.00
2018-06-27T21:17:03.838Z,100805.00
2018-06-27T21:19:39.839Z,100801.00
2018-06-27T21:22:17.030Z,100808.00
2018-06-27T21:24:53.783Z,100801.00
2018-06-27T21:27:30.909Z,100804.00
2018-06-27T21:30:08.858Z,100807.00
2018-06-27T21:32:45.016Z,100801.00
2018-06-27T21:35:23.554Z,100802.00
2018-06-27T21:38:00.634Z,100800.00
2018-06-27T21:40:37.627Z,100811.00
2018-06-27T21:43:14.229Z,100811.00
2018-06-27T21:45:51.477Z,100809.00
2018-06-27T21:48:27.741Z,100804.00
2018-06-27T21:51:04.414Z,100806.00
2018-06-27T21:53:42.688Z,100809.00
2018-06-27T21:56:19.911Z,100813.00
2018-06-27T21:58:58.605Z,100811.00
2018-06-27T22:01:35.870Z,100806.00
2018-06-27T22:04:11.953Z,100806.00
2018-06-27T22:06:48.510Z,100810.00
2018-06-27T22:09:24.585Z,100811.00
2018-06-27T22:12:01.999Z,100810.00
2018-06-27T22:14:38.948Z,100806.00
2018-06-27T22:17:14.920Z,100808.00
2018-06-27T22:19:51.914Z,100807.00
2018-06-27T22:22:27.873Z,100806.00
2018-06-27T22:25:04.458Z,100802.00
2018-06-27T22:27:40.310Z,100802.00
2018-06-27T22:30:17.297Z,100803.00
2018-06-27T22:32:54.328Z,100802.00
2018-06-27T22:35:31.289Z,100798.00
2018-06-27T22:38:07.688Z,100798.00
2018-06-27T22:40:44.056Z,100799.00
2018-06-27T22:43:21.013Z,100798.00
2018-06-27T22:45:57.334Z,100794.00
2018-06-27T22:48:34.664Z,100799.00
2018-06-27T22:51:11.428Z,100792.00
2018-06-27T22:53:48.782Z,100795.00
2018-06-27T22:56:26.135Z,100794.00
2018-06-27T22:59:03.178Z,100798.00
2018-06-27T23:01:40.593Z,100793.00
2018-06-27T23:04:17.539Z,100786.00
2018-06-27T23:06:54.374Z,100790.00
2018-06-27T23:09:31.139Z,100785.00
2018-06-27T23:12:09.018Z,100785.00
2018-06-27T23:14:47.539Z,100782.00
2018-06-27T23:17:24.231Z,100781.00
2018-06-27T23:20:00.565Z,100776.00
2018-06-27T23:22:46.732Z,100781.00
2018-06-27T23:25:22.731Z,100782.00
2018-06-27T23:28:00.647Z,100782.00
2018-06-27T23:30:38.105Z,100778.00
2018-06-27T23:33:14.197Z,100776.00
2018-06-27T23:35:51.875Z,100772.00
2018-06-27T23:38:28.197Z,100764.00
2018-06-27T23:41:04.385Z,100762.00
2018-06-27T23:43:41.787Z,100766.00
2018-06-27T23:46:19.873Z,100757.00
2018-06-27T23:48:57.630Z,100758.00
2018-06-27T23:51:33.771Z,100754.00
2018-06-27T23:54:11.806Z,100749.00
2018-06-27T23:56:49.584Z,100750.00
2018-06-27T23:59:26.589Z,100746.00
